sensor_id;sensor_type;location;lat;lon;timestamp;P1;durP1;ratioP1;P2;durP2;ratioP2
2712;SDS011;1366;47.988;7.856;2022-12-07T05:02:54;4.83;;;4.43;;
2712;SDS011;1366;47.988;7.856;2022-12-07T05:05:21;5.23;;;4.53;;
2712;SDS011;1366;47.988;7.856;2022-12-07T05:07:47;4.90;;;4.50;;
2712;SDS011;1366;47.988;7.856;2022-12-07T05:10:13;5.13;;;4.63;;
2712;SDS011;1366;47.988;7.856;2022-12-07T05:12:39;6.47;;;5.13;;
2712;SDS011;1366;47.988;7.856;2022-12-07T05:15:05;7.27;;;5.37;;
2712;SDS011;1366;47.988;7.856;2022-12-07T05:17:31;7.23;;;6.20;;
2712;SDS011;1366;47.988;7.856;2022-12-07T05:19:57;9.10;;;6.30;;
2712;SDS011;1366;47.988;7.856;2022-12-07T05:22:23;8.07;;;7.17;;
2712;SDS011;1366;47.988;7.856;2022-12-07T05:24:53;10.30;;;6.83;;
2712;SDS011;1366;47.988;7.856;2022-12-07T05:27:19;6.90;;;6.03;;
2712;SDS011;1366;47.988;7.856;2022-12-07T05:29:45;6.40;;;5.73;;
2712;SDS011;1366;47.988;7.856;2022-12-07T05:32:11;6.40;;;5.50;;
2712;SDS011;1366;47.988;7.856;2022-12-07T05:34:37;7.10;;;5.77;;
2712;SDS011;1366;47.988;7.856;2022-12-07T05:37:03;9.17;;;6.10;;
2712;SDS011;1366;47.988;7.856;2022-12-07T05:39:29;6.07;;;5.57;;
2712;SDS011;1366;47.988;7.856;2022-12-07T05:41:55;7.17;;;6.50;;
2712;SDS011;1366;47.988;7.856;2022-12-07T05:44:37;8.60;;;6.93;;
2712;SDS011;1366;47.988;7.856;2022-12-07T05:47:03;8.67;;;6.00;;
2712;SDS011;1366;47.988;7.856;2022-12-07T05:49:29;8.43;;;5.80;;
2712;SDS011;1366;47.988;7.856;2022-12-07T05:51:55;8.00;;;6.60;;
2712;SDS011;1366;47.988;7.856;2022-12-07T05:54:21;8.23;;;7.43;;
2712;SDS011;1366;47.988;7.856;2022-12-07T05:56:47;6.60;;;6.00;;
2712;SDS011;1366;47.988;7.856;2022-12-07T05:59:13;8.40;;;6.10;;
2712;SDS011;1366;47.988;7.856;2022-12-07T06:01:52;6.10;;;5.23;;
2712;SDS011;1366;47.988;7.856;2022-12-07T06:04:19;6.80;;;6.00;;
2712;SDS011;1366;47.988;7.856;2022-12-07T06:06:45;5.77;;;5.20;;
2712;SDS011;1366;47.988;7.856;2022-12-07T06:09:11;5.93;;;5.20;;
2712;SDS011;1366;47.988;7.856;2022-12-07T06:11:38;7.03;;;5.90;;
2712;SDS011;1366;47.988;7.856;2022-12-07T06:14:22;6.70;;;5.77;;
2712;SDS011;1366;47.988;7.856;2022-12-07T06:16:48;6.17;;;5.63;;
2712;SDS011;1366;47.988;7.856;2022-12-07T06:19:15;8.07;;;5.87;;
2712;SDS011;1366;47.988;7.856;2022-12-07T06:21:41;6.43;;;5.83;;
2712;SDS011;1366;47.988;7.856;2022-12-07T06:24:07;6.47;;;5.70;;
2712;SDS011;1366;47.988;7.856;2022-12-07T06:26:34;6.57;;;5.50;;
2712;SDS011;1366;47.988;7.856;2022-12-07T06:29:00;6.20;;;5.60;;
2712;SDS011;1366;47.988;7.856;2022-12-07T06:31:26;6.43;;;5.37;;
2712;SDS011;1366;47.988;7.856;2022-12-07T06:33:57;6.20;;;5.60;;
2712;SDS011;1366;47.988;7.856;2022-12-07T06:36:23;5.60;;;4.83;;
2712;SDS011;1366;47.988;7.856;2022-12-07T06:38:49;5.87;;;4.57;;
2712;SDS011;1366;47.988;7.856;2022-12-07T06:41:15;8.40;;;6.57;;
2712;SDS011;1366;47.988;7.856;2022-12-07T06:43:41;6.50;;;5.40;;
2712;SDS011;1366;47.988;7.856;2022-12-07T06:46:07;6.03;;;5.43;;
2712;SDS011;1366;47.988;7.856;2022-12-07T06:48:33;6.50;;;5.87;;
2712;SDS011;1366;47.988;7.856;2022-12-07T06:50:59;7.60;;;6.47;;
2712;SDS011;1366;47.988;7.856;2022-12-07T06:53:25;6.20;;;5.37;;
2712;SDS011;1366;47.988;7.856;2022-12-07T06:55:51;6.47;;;5.87;;
2712;SDS011;1366;47.988;7.856;2022-12-07T06:58:17;7.00;;;5.83;;
2712;SDS011;1366;47.988;7.856;2022-12-07T07:00:44;6.07;;;5.47;;
2712;SDS011;1366;47.988;7.856;2022-12-07T07:03:10;5.93;;;5.33;;
2712;SDS011;1366;47.988;7.856;2022-12-07T07:05:36;5.93;;;5.40;;
2712;SDS011;1366;47.988;7.856;2022-12-07T07:08:02;7.47;;;5.93;;
2712;SDS011;1366;47.988;7.856;2022-12-07T07:10:28;7.50;;;6.30;;
2712;SDS011;1366;47.988;7.856;2022-12-07T07:12:54;6.13;;;5.53;;
2712;SDS011;1366;47.988;7.856;2022-12-07T07:15:20;7.30;;;6.47;;
2712;SDS011;1366;47.988;7.856;2022-12-07T07:17:46;7.80;;;5.63;;
2712;SDS011;1366;47.988;7.856;2022-12-07T07:20:12;6.83;;;5.57;;
2712;SDS011;1366;47.988;7.856;2022-12-07T07:22:39;8.97;;;6.50;;
2712;SDS011;1366;47.988;7.856;2022-12-07T07:25:05;6.20;;;5.60;;
2712;SDS011;1366;47.988;7.856;2022-12-07T07:27:31;7.27;;;6.10;;
2712;SDS011;1366;47.988;7.856;2022-12-07T07:29:57;6.97;;;5.23;;
2712;SDS011;1366;47.988;7.856;2022-12-07T07:32:23;7.20;;;5.60;;
2712;SDS011;1366;47.988;7.856;2022-12-07T07:34:49;6.87;;;5.80;;
2712;SDS011;1366;47.988;7.856;2022-12-07T07:37:15;7.00;;;6.03;;
2712;SDS011;1366;47.988;7.856;2022-12-07T07:39:41;6.27;;;5.67;;
2712;SDS011;1366;47.988;7.856;2022-12-07T07:42:07;6.23;;;5.63;;
2712;SDS011;1366;47.988;7.856;2022-12-07T07:44:33;5.37;;;4.87;;
2712;SDS011;1366;47.988;7.856;2022-12-07T07:47:00;6.23;;;5.63;;
2712;SDS011;1366;47.988;7.856;2022-12-07T07:49:26;6.00;;;5.50;;
2712;SDS011;1366;47.988;7.856;2022-12-07T07:51:52;6.40;;;5.80;;
2712;SDS011;1366;47.988;7.856;2022-12-07T07:54:18;6.50;;;5.50;;
2712;SDS011;1366;47.988;7.856;2022-12-07T07:56:44;5.63;;;5.13;;
2712;SDS011;1366;47.988;7.856;2022-12-07T07:59:10;5.97;;;5.30;;
2712;SDS011;1366;47.988;7.856;2022-12-07T08:01:36;6.63;;;5.53;;
2712;SDS011;1366;47.988;7.856;2022-12-07T08:04:02;5.60;;;5.10;;
2712;SDS011;1366;47.988;7.856;2022-12-07T08:06:28;5.40;;;4.93;;
2712;SDS011;1366;47.988;7.856;2022-12-07T08:08:54;7.27;;;5.60;;
2712;SDS011;1366;47.988;7.856;2022-12-07T08:11:22;6.20;;;5.60;;
2712;SDS011;1366;47.988;7.856;2022-12-07T08:13:48;7.90;;;6.97;;
2712;SDS011;1366;47.988;7.856;2022-12-07T08:16:15;6.50;;;5.90;;
2712;SDS011;1366;47.988;7.856;2022-12-07T08:18:41;7.90;;;7.10;;
2712;SDS011;1366;47.988;7.856;2022-12-07T08:21:09;8.30;;;7.60;;
2712;SDS011;1366;47.988;7.856;2022-12-07T08:23:36;10.83;;;7.77;;
2712;SDS011;1366;47.988;7.856;2022-12-07T08:26:03;10.80;;;8.73;;
2712;SDS011;1366;47.988;7.856;2022-12-07T08:28:29;11.77;;;9.73;;
2712;SDS011;1366;47.988;7.856;2022-12-07T08:31:02;9.13;;;8.20;;
2712;SDS011;1366;47.988;7.856;2022-12-07T08:33:28;10.70;;;9.60;;
2712;SDS011;1366;47.988;7.856;2022-12-07T08:35:54;12.70;;;9.53;;
2712;SDS011;1366;47.988;7.856;2022-12-07T08:38:20;12.27;;;9.40;;
2712;SDS011;1366;47.988;7.856;2022-12-07T08:40:53;9.23;;;8.27;;
2712;SDS011;1366;47.988;7.856;2022-12-07T08:43:20;8.47;;;7.53;;
2712;SDS011;1366;47.988;7.856;2022-12-07T08:45:47;7.10;;;6.40;;
2712;SDS011;1366;47.988;7.856;2022-12-07T08:48:13;9.50;;;7.33;;
2712;SDS011;1366;47.988;7.856;2022-12-07T08:50:42;8.50;;;7.40;;
2712;SDS011;1366;47.988;7.856;2022-12-07T08:53:08;9.27;;;6.67;;
2712;SDS011;1366;47.988;7.856;2022-12-07T08:55:35;7.73;;;6.60;;
2712;SDS011;1366;47.988;7.856;2022-12-07T08:58:01;7.83;;;7.07;;
2712;SDS011;1366;47.988;7.856;2022-12-07T09:00:28;8.20;;;7.40;;
2712;SDS011;1366;47.988;7.856;2022-12-07T09:02:54;7.40;;;6.70;;
2712;SDS011;1366;47.988;7.856;2022-12-07T09:05:20;8.13;;;6.73;;
2712;SDS011;1366;47.988;7.856;2022-12-07T09:07:48;8.07;;;6.97;;
2712;SDS011;1366;47.988;7.856;2022-12-07T09:10:15;7.97;;;7.00;;
2712;SDS011;1366;47.988;7.856;2022-12-07T09:12:41;7.00;;;6.30;;
2712;SDS011;1366;47.988;7.856;2022-12-07T09:15:07;6.67;;;6.07;;
2712;SDS011;1366;47.988;7.856;2022-12-07T09:17:33;6.80;;;6.10;;
2712;SDS011;1366;47.988;7.856;2022-12-07T09:20:00;8.30;;;6.20;;
2712;SDS011;1366;47.988;7.856;2022-12-07T09:22:29;6.90;;;6.03;;
2712;SDS011;1366;47.988;7.856;2022-12-07T09:24:59;5.80;;;5.20;;
2712;SDS011;1366;47.988;7.856;2022-12-07T09:27:26;7.67;;;6.60;;
2712;SDS011;1366;47.988;7.856;2022-12-07T09:29:52;6.70;;;6.10;;
2712;SDS011;1366;47.988;7.856;2022-12-07T09:32:18;8.77;;;6.37;;
2712;SDS011;1366;47.988;7.856;2022-12-07T09:34:44;6.80;;;6.10;;
2712;SDS011;1366;47.988;7.856;2022-12-07T09:37:10;8.47;;;7.07;;
2712;SDS011;1366;47.988;7.856;2022-12-07T09:39:39;7.67;;;6.87;;
2712;SDS011;1366;47.988;7.856;2022-12-07T09:42:06;7.10;;;6.40;;
2712;SDS011;1366;47.988;7.856;2022-12-07T09:44:33;6.93;;;6.33;;
2712;SDS011;1366;47.988;7.856;2022-12-07T09:46:59;6.50;;;5.90;;
2712;SDS011;1366;47.988;7.856;2022-12-07T09:49:27;7.53;;;6.80;;
2712;SDS011;1366;47.988;7.856;2022-12-07T09:54:41;7.40;;;6.50;;
2712;SDS011;1366;47.988;7.856;2022-12-07T09:57:10;7.57;;;6.77;;
2712;SDS011;1366;47.988;7.856;2022-12-07T09:59:37;7.57;;;6.70;;
2712;SDS011;1366;47.988;7.856;2022-12-07T10:02:23;6.80;;;6.10;;
2712;SDS011;1366;47.988;7.856;2022-12-07T10:04:50;7.20;;;6.13;;
2712;SDS011;1366;47.988;7.856;2022-12-07T10:07:16;7.13;;;6.43;;
2712;SDS011;1366;47.988;7.856;2022-12-07T10:09:42;6.90;;;6.00;;
2712;SDS011;1366;47.988;7.856;2022-12-07T10:12:09;7.27;;;6.57;;
2712;SDS011;1366;47.988;7.856;2022-12-07T10:14:53;6.33;;;5.60;;
2712;SDS011;1366;47.988;7.856;2022-12-07T10:17:29;6.97;;;5.80;;
2712;SDS011;1366;47.988;7.856;2022-12-07T10:20:16;6.80;;;6.10;;
2712;SDS011;1366;47.988;7.856;2022-12-07T10:23:04;7.40;;;6.57;;
2712;SDS011;1366;47.988;7.856;2022-12-07T10:25:33;6.80;;;5.80;;
2712;SDS011;1366;47.988;7.856;2022-12-07T10:28:03;5.73;;;5.13;;
2712;SDS011;1366;47.988;7.856;2022-12-07T10:33:33;5.73;;;5.17;;
2712;SDS011;1366;47.988;7.856;2022-12-07T10:36:00;5.87;;;5.37;;
2712;SDS011;1366;47.988;7.856;2022-12-07T10:38:27;5.67;;;5.17;;
2712;SDS011;1366;47.988;7.856;2022-12-07T10:41:04;5.70;;;4.97;;
2712;SDS011;1366;47.988;7.856;2022-12-07T10:43:30;5.37;;;4.57;;
2712;SDS011;1366;47.988;7.856;2022-12-07T10:46:05;5.23;;;4.40;;
2712;SDS011;1366;47.988;7.856;2022-12-07T10:51:20;4.10;;;3.70;;
2712;SDS011;1366;47.988;7.856;2022-12-07T11:01:44;4.50;;;4.10;;
2712;SDS011;1366;47.988;7.856;2022-12-07T11:06:39;4.00;;;3.70;;
2712;SDS011;1366;47.988;7.856;2022-12-07T11:11:42;3.63;;;3.33;;
2712;SDS011;1366;47.988;7.856;2022-12-07T11:14:28;4.30;;;3.90;;
2712;SDS011;1366;47.988;7.856;2022-12-07T11:22:20;3.10;;;2.80;;
2712;SDS011;1366;47.988;7.856;2022-12-07T11:29:52;3.70;;;3.40;;
2712;SDS011;1366;47.988;7.856;2022-12-07T11:34:59;4.70;;;4.30;;
2712;SDS011;1366;47.988;7.856;2022-12-07T11:37:29;5.27;;;3.97;;
2712;SDS011;1366;47.988;7.856;2022-12-07T11:39:59;3.87;;;3.57;;
2712;SDS011;1366;47.988;7.856;2022-12-07T11:42:29;4.60;;;2.97;;
2712;SDS011;1366;47.988;7.856;2022-12-07T11:45:02;2.90;;;2.70;;
2712;SDS011;1366;47.988;7.856;2022-12-07T11:50:16;3.43;;;3.20;;
2712;SDS011;1366;47.988;7.856;2022-12-07T11:57:45;3.97;;;3.60;;
2712;SDS011;1366;47.988;7.856;2022-12-07T12:00:16;3.60;;;3.30;;
2712;SDS011;1366;47.988;7.856;2022-12-07T12:02:53;3.03;;;2.73;;
2712;SDS011;1366;47.988;7.856;2022-12-07T12:05:24;3.43;;;3.23;;
2712;SDS011;1366;47.988;7.856;2022-12-07T12:08:03;3.90;;;3.60;;
2712;SDS011;1366;47.988;7.856;2022-12-07T12:13:27;3.83;;;3.50;;
2712;SDS011;1366;47.988;7.856;2022-12-07T12:16:03;3.70;;;3.40;;
2712;SDS011;1366;47.988;7.856;2022-12-07T12:21:09;4.27;;;3.53;;
2712;SDS011;1366;47.988;7.856;2022-12-07T12:23:43;3.60;;;3.30;;
2712;SDS011;1366;47.988;7.856;2022-12-07T12:26:20;3.33;;;3.13;;
2712;SDS011;1366;47.988;7.856;2022-12-07T12:28:56;19.03;;;14.20;;
2712;SDS011;1366;47.988;7.856;2022-12-07T12:33:53;3.87;;;3.57;;
2712;SDS011;1366;47.988;7.856;2022-12-07T12:38:50;4.10;;;3.43;;
2712;SDS011;1366;47.988;7.856;2022-12-07T12:41:59;4.87;;;3.67;;
2712;SDS011;1366;47.988;7.856;2022-12-07T12:51:45;4.50;;;4.10;;
2712;SDS011;1366;47.988;7.856;2022-12-07T12:56:42;4.30;;;3.90;;
2712;SDS011;1366;47.988;7.856;2022-12-07T13:01:43;4.73;;;4.30;;
2712;SDS011;1366;47.988;7.856;2022-12-07T13:04:21;5.20;;;4.83;;
2712;SDS011;1366;47.988;7.856;2022-12-07T13:06:49;4.93;;;4.47;;
2712;SDS011;1366;47.988;7.856;2022-12-07T13:09:20;4.90;;;4.43;;
2712;SDS011;1366;47.988;7.856;2022-12-07T13:11:47;4.77;;;4.30;;
2712;SDS011;1366;47.988;7.856;2022-12-07T13:16:59;5.93;;;5.00;;
2712;SDS011;1366;47.988;7.856;2022-12-07T13:24:54;6.13;;;4.87;;
2712;SDS011;1366;47.988;7.856;2022-12-07T13:27:21;5.47;;;4.97;;
2712;SDS011;1366;47.988;7.856;2022-12-07T13:29:47;6.00;;;5.00;;
2712;SDS011;1366;47.988;7.856;2022-12-07T13:32:32;5.73;;;4.83;;
2712;SDS011;1366;47.988;7.856;2022-12-07T13:34:58;6.20;;;5.00;;
2712;SDS011;1366;47.988;7.856;2022-12-07T13:37:27;4.80;;;4.40;;
2712;SDS011;1366;47.988;7.856;2022-12-07T13:39:55;5.53;;;4.60;;
2712;SDS011;1366;47.988;7.856;2022-12-07T13:42:28;5.53;;;4.83;;
2712;SDS011;1366;47.988;7.856;2022-12-07T13:44:55;6.47;;;5.87;;
2712;SDS011;1366;47.988;7.856;2022-12-07T13:47:41;5.43;;;4.70;;
2712;SDS011;1366;47.988;7.856;2022-12-07T13:50:22;6.30;;;4.63;;
2712;SDS011;1366;47.988;7.856;2022-12-07T13:52:49;5.23;;;4.70;;
2712;SDS011;1366;47.988;7.856;2022-12-07T13:55:16;5.50;;;4.97;;
2712;SDS011;1366;47.988;7.856;2022-12-07T13:57:42;4.87;;;4.47;;
2712;SDS011;1366;47.988;7.856;2022-12-07T14:00:15;5.43;;;4.80;;
2712;SDS011;1366;47.988;7.856;2022-12-07T14:03:25;9.33;;;5.80;;
2712;SDS011;1366;47.988;7.856;2022-12-07T14:05:34;5.37;;;4.50;;
2712;SDS011;1366;47.988;7.856;2022-12-07T14:10:28;5.60;;;5.00;;
2712;SDS011;1366;47.988;7.856;2022-12-07T14:12:55;5.33;;;4.83;;
2712;SDS011;1366;47.988;7.856;2022-12-07T14:15:22;5.93;;;4.90;;
2712;SDS011;1366;47.988;7.856;2022-12-07T14:17:53;5.23;;;4.73;;
2712;SDS011;1366;47.988;7.856;2022-12-07T14:22:55;4.70;;;4.20;;
2712;SDS011;1366;47.988;7.856;2022-12-07T14:25:22;4.93;;;4.43;;
2712;SDS011;1366;47.988;7.856;2022-12-07T14:30:20;5.53;;;5.03;;
2712;SDS011;1366;47.988;7.856;2022-12-07T14:32:47;6.30;;;5.70;;
2712;SDS011;1366;47.988;7.856;2022-12-07T14:35:16;6.13;;;5.50;;
2712;SDS011;1366;47.988;7.856;2022-12-07T14:37:44;7.10;;;5.60;;
2712;SDS011;1366;47.988;7.856;2022-12-07T14:40:15;6.97;;;5.93;;
2712;SDS011;1366;47.988;7.856;2022-12-07T14:42:42;8.00;;;5.80;;
2712;SDS011;1366;47.988;7.856;2022-12-07T14:45:15;5.70;;;5.00;;
2712;SDS011;1366;47.988;7.856;2022-12-07T14:47:42;6.10;;;5.17;;
2712;SDS011;1366;47.988;7.856;2022-12-07T14:50:10;5.23;;;4.70;;
2712;SDS011;1366;47.988;7.856;2022-12-07T14:52:36;6.10;;;4.50;;
2712;SDS011;1366;47.988;7.856;2022-12-07T14:55:02;4.97;;;4.50;;
2712;SDS011;1366;47.988;7.856;2022-12-07T14:57:28;7.30;;;5.47;;
2712;SDS011;1366;47.988;7.856;2022-12-07T14:59:55;5.20;;;4.70;;
2712;SDS011;1366;47.988;7.856;2022-12-07T15:02:21;5.70;;;4.27;;
2712;SDS011;1366;47.988;7.856;2022-12-07T15:04:47;4.90;;;4.40;;
2712;SDS011;1366;47.988;7.856;2022-12-07T15:07:15;6.10;;;4.80;;
2712;SDS011;1366;47.988;7.856;2022-12-07T15:09:43;4.60;;;4.20;;
2712;SDS011;1366;47.988;7.856;2022-12-07T15:12:09;4.80;;;4.37;;
2712;SDS011;1366;47.988;7.856;2022-12-07T15:14:35;5.70;;;5.10;;
2712;SDS011;1366;47.988;7.856;2022-12-07T15:17:01;6.23;;;5.57;;
2712;SDS011;1366;47.988;7.856;2022-12-07T15:19:27;6.80;;;5.47;;
2712;SDS011;1366;47.988;7.856;2022-12-07T15:21:53;8.13;;;5.83;;
2712;SDS011;1366;47.988;7.856;2022-12-07T15:24:20;7.13;;;5.90;;
2712;SDS011;1366;47.988;7.856;2022-12-07T15:26:46;7.60;;;6.00;;
2712;SDS011;1366;47.988;7.856;2022-12-07T15:29:13;6.00;;;5.00;;
2712;SDS011;1366;47.988;7.856;2022-12-07T15:31:40;5.53;;;5.00;;
2712;SDS011;1366;47.988;7.856;2022-12-07T15:34:07;7.53;;;5.40;;
2712;SDS011;1366;47.988;7.856;2022-12-07T15:36:33;8.57;;;5.40;;
2712;SDS011;1366;47.988;7.856;2022-12-07T15:38:59;6.57;;;5.43;;
2712;SDS011;1366;47.988;7.856;2022-12-07T15:41:26;6.97;;;5.40;;
2712;SDS011;1366;47.988;7.856;2022-12-07T15:43:52;6.47;;;5.70;;
2712;SDS011;1366;47.988;7.856;2022-12-07T15:46:38;7.07;;;6.03;;
2712;SDS011;1366;47.988;7.856;2022-12-07T15:49:09;7.47;;;6.33;;
2712;SDS011;1366;47.988;7.856;2022-12-07T15:51:36;7.03;;;5.80;;
2712;SDS011;1366;47.988;7.856;2022-12-07T15:54:02;7.03;;;5.37;;
2712;SDS011;1366;47.988;7.856;2022-12-07T15:56:28;6.63;;;5.63;;
2712;SDS011;1366;47.988;7.856;2022-12-07T15:58:55;9.80;;;6.67;;
2712;SDS011;1366;47.988;7.856;2022-12-07T16:01:21;6.93;;;6.20;;
2712;SDS011;1366;47.988;7.856;2022-12-07T16:03:47;8.10;;;6.27;;
2712;SDS011;1366;47.988;7.856;2022-12-07T16:06:17;7.60;;;6.20;;
2712;SDS011;1366;47.988;7.856;2022-12-07T16:08:43;7.10;;;5.90;;
2712;SDS011;1366;47.988;7.856;2022-12-07T16:11:10;7.20;;;6.20;;
2712;SDS011;1366;47.988;7.856;2022-12-07T16:13:36;7.77;;;6.40;;
2712;SDS011;1366;47.988;7.856;2022-12-07T16:16:06;8.20;;;5.97;;
2712;SDS011;1366;47.988;7.856;2022-12-07T16:18:32;6.87;;;5.40;;
2712;SDS011;1366;47.988;7.856;2022-12-07T16:20:59;9.70;;;6.80;;
2712;SDS011;1366;47.988;7.856;2022-12-07T16:23:25;17.90;;;6.83;;
2712;SDS011;1366;47.988;7.856;2022-12-07T16:25:51;6.37;;;5.13;;
2712;SDS011;1366;47.988;7.856;2022-12-07T16:28:17;7.30;;;6.13;;
2712;SDS011;1366;47.988;7.856;2022-12-07T16:30:43;9.00;;;6.97;;
2712;SDS011;1366;47.988;7.856;2022-12-07T16:33:09;7.97;;;7.27;;
2712;SDS011;1366;47.988;7.856;2022-12-07T16:35:38;9.90;;;8.57;;
2712;SDS011;1366;47.988;7.856;2022-12-07T16:38:05;10.50;;;8.80;;
2712;SDS011;1366;47.988;7.856;2022-12-07T16:40:31;11.63;;;8.90;;
2712;SDS011;1366;47.988;7.856;2022-12-07T16:42:57;9.87;;;8.10;;
2712;SDS011;1366;47.988;7.856;2022-12-07T16:45:23;11.80;;;8.70;;
2712;SDS011;1366;47.988;7.856;2022-12-07T16:47:50;9.67;;;8.20;;
2712;SDS011;1366;47.988;7.856;2022-12-07T16:50:16;8.80;;;7.90;;
2712;SDS011;1366;47.988;7.856;2022-12-07T16:52:42;8.13;;;7.33;;
2712;SDS011;1366;47.988;7.856;2022-12-07T16:55:08;7.97;;;7.23;;
2712;SDS011;1366;47.988;7.856;2022-12-07T16:57:34;10.97;;;7.67;;
2712;SDS011;1366;47.988;7.856;2022-12-07T17:00:00;9.40;;;8.07;;
2712;SDS011;1366;47.988;7.856;2022-12-07T17:02:28;8.33;;;7.40;;
2712;SDS011;1366;47.988;7.856;2022-12-07T17:04:54;8.80;;;6.43;;
2712;SDS011;1366;47.988;7.856;2022-12-07T17:07:20;8.30;;;7.50;;
2712;SDS011;1366;47.988;7.856;2022-12-07T17:09:46;8.43;;;7.60;;
2712;SDS011;1366;47.988;7.856;2022-12-07T17:12:12;7.23;;;6.40;;
2712;SDS011;1366;47.988;7.856;2022-12-07T17:14:38;7.80;;;6.70;;
2712;SDS011;1366;47.988;7.856;2022-12-07T17:17:23;7.93;;;7.00;;
2712;SDS011;1366;47.988;7.856;2022-12-07T17:19:49;6.67;;;6.03;;
2712;SDS011;1366;47.988;7.856;2022-12-07T17:22:15;8.33;;;7.53;;
2712;SDS011;1366;47.988;7.856;2022-12-07T17:24:41;9.90;;;7.83;;
2712;SDS011;1366;47.988;7.856;2022-12-07T17:27:07;9.73;;;8.73;;
2712;SDS011;1366;47.988;7.856;2022-12-07T17:29:33;10.03;;;7.63;;
2712;SDS011;1366;47.988;7.856;2022-12-07T17:31:59;8.47;;;7.20;;
2712;SDS011;1366;47.988;7.856;2022-12-07T17:34:25;9.07;;;8.17;;
2712;SDS011;1366;47.988;7.856;2022-12-07T17:36:51;9.20;;;8.27;;
2712;SDS011;1366;47.988;7.856;2022-12-07T17:39:19;10.37;;;9.37;;
2712;SDS011;1366;47.988;7.856;2022-12-07T17:41:46;10.20;;;8.90;;
2712;SDS011;1366;47.988;7.856;2022-12-07T17:44:30;9.87;;;8.87;;
2712;SDS011;1366;47.988;7.856;2022-12-07T17:46:56;11.40;;;8.70;;
2712;SDS011;1366;47.988;7.856;2022-12-07T17:49:23;9.90;;;8.47;;
2712;SDS011;1366;47.988;7.856;2022-12-07T17:51:50;8.97;;;7.83;;
2712;SDS011;1366;47.988;7.856;2022-12-07T17:54:34;9.57;;;8.50;;
2712;SDS011;1366;47.988;7.856;2022-12-07T17:57:01;10.27;;;8.60;;
2712;SDS011;1366;47.988;7.856;2022-12-07T17:59:27;9.90;;;8.33;;
2712;SDS011;1366;47.988;7.856;2022-12-07T18:01:53;9.60;;;8.60;;
2712;SDS011;1366;47.988;7.856;2022-12-07T18:04:19;10.37;;;9.20;;
2712;SDS011;1366;47.988;7.856;2022-12-07T18:06:45;9.87;;;7.83;;
2712;SDS011;1366;47.988;7.856;2022-12-07T18:09:11;10.17;;;9.07;;
2712;SDS011;1366;47.988;7.856;2022-12-07T18:11:37;9.60;;;8.60;;
2712;SDS011;1366;47.988;7.856;2022-12-07T18:14:03;10.17;;;8.00;;
2712;SDS011;1366;47.988;7.856;2022-12-07T18:16:30;9.60;;;7.93;;
2712;SDS011;1366;47.988;7.856;2022-12-07T18:18:58;8.03;;;7.13;;
2712;SDS011;1366;47.988;7.856;2022-12-07T18:21:26;9.33;;;8.13;;
2712;SDS011;1366;47.988;7.856;2022-12-07T18:23:53;9.47;;;7.97;;
2712;SDS011;1366;47.988;7.856;2022-12-07T18:26:20;11.93;;;9.03;;
2712;SDS011;1366;47.988;7.856;2022-12-07T18:28:47;10.17;;;9.10;;
2712;SDS011;1366;47.988;7.856;2022-12-07T18:31:13;9.47;;;8.57;;
2712;SDS011;1366;47.988;7.856;2022-12-07T18:33:40;9.43;;;8.30;;
2712;SDS011;1366;47.988;7.856;2022-12-07T18:36:06;12.53;;;9.40;;
2712;SDS011;1366;47.988;7.856;2022-12-07T18:38:32;12.60;;;9.30;;
2712;SDS011;1366;47.988;7.856;2022-12-07T18:40:59;10.13;;;8.90;;
2712;SDS011;1366;47.988;7.856;2022-12-07T18:43:25;9.43;;;8.27;;
2712;SDS011;1366;47.988;7.856;2022-12-07T18:45:51;9.60;;;7.77;;
2712;SDS011;1366;47.988;7.856;2022-12-07T18:48:18;10.50;;;8.77;;
2712;SDS011;1366;47.988;7.856;2022-12-07T18:50:46;10.27;;;8.07;;
2712;SDS011;1366;47.988;7.856;2022-12-07T18:53:12;8.60;;;7.53;;
2712;SDS011;1366;47.988;7.856;2022-12-07T18:55:38;9.07;;;8.17;;
2712;SDS011;1366;47.988;7.856;2022-12-07T18:58:04;10.97;;;9.80;;
2712;SDS011;1366;47.988;7.856;2022-12-07T19:00:31;9.50;;;8.67;;
2712;SDS011;1366;47.988;7.856;2022-12-07T19:02:58;9.83;;;8.83;;
2712;SDS011;1366;47.988;7.856;2022-12-07T19:05:25;9.93;;;8.93;;
2712;SDS011;1366;47.988;7.856;2022-12-07T19:07:52;12.53;;;8.87;;
2712;SDS011;1366;47.988;7.856;2022-12-07T19:10:18;12.80;;;9.90;;
2712;SDS011;1366;47.988;7.856;2022-12-07T19:12:45;9.70;;;8.80;;
2712;SDS011;1366;47.988;7.856;2022-12-07T19:15:11;8.33;;;7.53;;
2712;SDS011;1366;47.988;7.856;2022-12-07T19:17:38;10.47;;;8.43;;
2712;SDS011;1366;47.988;7.856;2022-12-07T19:20:05;8.73;;;7.90;;
2712;SDS011;1366;47.988;7.856;2022-12-07T19:22:33;9.77;;;8.10;;
2712;SDS011;1366;47.988;7.856;2022-12-07T19:25:00;9.37;;;8.00;;
2712;SDS011;1366;47.988;7.856;2022-12-07T19:27:28;9.23;;;8.17;;
2712;SDS011;1366;47.988;7.856;2022-12-07T19:29:56;9.33;;;8.40;;
2712;SDS011;1366;47.988;7.856;2022-12-07T19:32:22;11.10;;;7.70;;
2712;SDS011;1366;47.988;7.856;2022-12-07T19:34:48;8.50;;;7.40;;
2712;SDS011;1366;47.988;7.856;2022-12-07T19:37:15;9.70;;;8.70;;
2712;SDS011;1366;47.988;7.856;2022-12-07T19:39:41;11.03;;;8.43;;
2712;SDS011;1366;47.988;7.856;2022-12-07T19:42:08;11.40;;;9.67;;
2712;SDS011;1366;47.988;7.856;2022-12-07T19:44:34;12.30;;;9.73;;
2712;SDS011;1366;47.988;7.856;2022-12-07T19:47:01;11.20;;;9.70;;
2712;SDS011;1366;47.988;7.856;2022-12-07T19:49:28;11.13;;;9.80;;
2712;SDS011;1366;47.988;7.856;2022-12-07T19:51:55;14.80;;;10.93;;
2712;SDS011;1366;47.988;7.856;2022-12-07T19:54:23;17.00;;;10.77;;
2712;SDS011;1366;47.988;7.856;2022-12-07T19:56:49;12.33;;;9.27;;
2712;SDS011;1366;47.988;7.856;2022-12-07T19:59:16;11.30;;;9.17;;
2712;SDS011;1366;47.988;7.856;2022-12-07T20:01:43;8.00;;;7.20;;
2712;SDS011;1366;47.988;7.856;2022-12-07T20:04:10;10.20;;;8.90;;
2712;SDS011;1366;47.988;7.856;2022-12-07T20:06:37;10.60;;;9.50;;
2712;SDS011;1366;47.988;7.856;2022-12-07T20:09:03;11.23;;;8.73;;
2712;SDS011;1366;47.988;7.856;2022-12-07T20:11:29;9.40;;;8.40;;
2712;SDS011;1366;47.988;7.856;2022-12-07T20:14:14;12.30;;;9.37;;
2712;SDS011;1366;47.988;7.856;2022-12-07T20:16:40;10.37;;;8.60;;
2712;SDS011;1366;47.988;7.856;2022-12-07T20:19:08;9.40;;;8.33;;
2712;SDS011;1366;47.988;7.856;2022-12-07T20:21:35;9.33;;;8.33;;
2712;SDS011;1366;47.988;7.856;2022-12-07T20:24:02;8.43;;;7.63;;
2712;SDS011;1366;47.988;7.856;2022-12-07T20:26:28;10.90;;;9.77;;
2712;SDS011;1366;47.988;7.856;2022-12-07T20:28:54;9.13;;;8.13;;
2712;SDS011;1366;47.988;7.856;2022-12-07T20:31:21;12.40;;;8.73;;
2712;SDS011;1366;47.988;7.856;2022-12-07T20:33:47;10.00;;;8.87;;
2712;SDS011;1366;47.988;7.856;2022-12-07T20:36:14;11.77;;;7.57;;
2712;SDS011;1366;47.988;7.856;2022-12-07T20:38:40;11.30;;;8.93;;
2712;SDS011;1366;47.988;7.856;2022-12-07T20:41:07;9.43;;;8.47;;
2712;SDS011;1366;47.988;7.856;2022-12-07T20:43:54;12.00;;;9.07;;
2712;SDS011;1366;47.988;7.856;2022-12-07T20:46:20;9.90;;;8.80;;
2712;SDS011;1366;47.988;7.856;2022-12-07T20:48:46;11.23;;;8.90;;
2712;SDS011;1366;47.988;7.856;2022-12-07T20:51:12;10.10;;;8.23;;
2712;SDS011;1366;47.988;7.856;2022-12-07T20:53:38;9.00;;;8.20;;
2712;SDS011;1366;47.988;7.856;2022-12-07T20:56:04;8.97;;;7.80;;
2712;SDS011;1366;47.988;7.856;2022-12-07T20:58:30;8.77;;;7.77;;
2712;SDS011;1366;47.988;7.856;2022-12-07T21:01:00;9.60;;;8.53;;
2712;SDS011;1366;47.988;7.856;2022-12-07T21:03:26;9.50;;;8.47;;
2712;SDS011;1366;47.988;7.856;2022-12-07T21:05:52;10.10;;;7.60;;
2712;SDS011;1366;47.988;7.856;2022-12-07T21:08:18;8.53;;;7.70;;
2712;SDS011;1366;47.988;7.856;2022-12-07T21:10:44;8.67;;;7.77;;
2712;SDS011;1366;47.988;7.856;2022-12-07T21:13:11;9.27;;;8.30;;
2712;SDS011;1366;47.988;7.856;2022-12-07T21:15:37;9.60;;;8.30;;
2712;SDS011;1366;47.988;7.856;2022-12-07T21:18:03;9.23;;;8.33;;
2712;SDS011;1366;47.988;7.856;2022-12-07T21:20:29;9.07;;;7.63;;
2712;SDS011;1366;47.988;7.856;2022-12-07T21:22:55;10.43;;;8.37;;
2712;SDS011;1366;47.988;7.856;2022-12-07T21:25:21;9.97;;;7.80;;
2712;SDS011;1366;47.988;7.856;2022-12-07T21:27:47;11.00;;;7.50;;
2712;SDS011;1366;47.988;7.856;2022-12-07T21:30:13;10.60;;;8.27;;
2712;SDS011;1366;47.988;7.856;2022-12-07T21:32:39;8.47;;;6.67;;
2712;SDS011;1366;47.988;7.856;2022-12-07T21:35:06;10.30;;;7.43;;
2712;SDS011;1366;47.988;7.856;2022-12-07T21:37:32;9.20;;;7.20;;
2712;SDS011;1366;47.988;7.856;2022-12-07T21:39:58;7.87;;;6.90;;